sensor_id;sensor_type;location;lat;lon;timestamp;P1;durP1;ratioP1;P2;durP2;ratioP2
30185;SDS011;31152;49.190;8.122;2023-08-01T00:02:21;10.18;;;4.30;;
30185;SDS011;31152;49.190;8.122;2023-08-01T00:04:51;10.15;;;4.60;;
30185;SDS011;31152;49.190;8.122;2023-08-01T00:07:18;10.95;;;5.30;;
30185;SDS011;31152;49.190;8.122;2023-08-01T00:09:44;11.65;;;5.55;;
30185;SDS011;31152;49.190;8.122;2023-08-01T00:12:11;11.88;;;6.05;;
30185;SDS011;31152;49.190;8.122;2023-08-01T00:14:38;13.25;;;6.07;;
30185;SDS011;31152;49.190;8.122;2023-08-01T00:17:05;14.80;;;6.45;;
30185;SDS011;31152;49.190;8.122;2023-08-01T00:19:32;11.43;;;5.97;;
30185;SDS011;31152;49.190;8.122;2023-08-01T00:21:58;15.38;;;6.20;;
30185;SDS011;31152;49.190;8.122;2023-08-01T00:24:28;10.18;;;6.13;;
30185;SDS011;31152;49.190;8.122;2023-08-01T00:26:54;15.18;;;6.40;;
30185;SDS011;31152;49.190;8.122;2023-08-01T00:29:24;16.52;;;6.50;;
30185;SDS011;31152;49.190;8.122;2023-08-01T00:31:51;10.95;;;6.05;;
30185;SDS011;31152;49.190;8.122;2023-08-01T00:34:18;11.27;;;5.95;;
30185;SDS011;31152;49.190;8.122;2023-08-01T00:36:47;15.52;;;7.05;;
30185;SDS011;31152;49.190;8.122;2023-08-01T00:39:18;13.10;;;6.47;;
30185;SDS011;31152;49.190;8.122;2023-08-01T00:41:44;14.30;;;6.60;;
30185;SDS011;31152;49.190;8.122;2023-08-01T00:44:11;13.65;;;6.28;;
30185;SDS011;31152;49.190;8.122;2023-08-01T00:46:40;10.65;;;5.88;;
30185;SDS011;31152;49.190;8.122;2023-08-01T00:49:07;12.75;;;6.32;;
30185;SDS011;31152;49.190;8.122;2023-08-01T00:51:34;12.23;;;5.97;;
30185;SDS011;31152;49.190;8.122;2023-08-01T00:54:04;10.18;;;6.07;;
30185;SDS011;31152;49.190;8.122;2023-08-01T00:56:31;14.75;;;6.07;;
30185;SDS011;31152;49.190;8.122;2023-08-01T00:58:59;13.13;;;6.10;;
30185;SDS011;31152;49.190;8.122;2023-08-01T01:01:29;14.52;;;6.07;;
30185;SDS011;31152;49.190;8.122;2023-08-01T01:03:56;15.65;;;5.25;;
30185;SDS011;31152;49.190;8.122;2023-08-01T01:06:32;14.10;;;5.97;;
30185;SDS011;31152;49.190;8.122;2023-08-01T01:09:13;12.05;;;5.38;;
30185;SDS011;31152;49.190;8.122;2023-08-01T01:11:44;11.45;;;5.53;;
30185;SDS011;31152;49.190;8.122;2023-08-01T01:14:11;16.52;;;6.13;;
30185;SDS011;31152;49.190;8.122;2023-08-01T01:16:40;13.85;;;6.13;;
30185;SDS011;31152;49.190;8.122;2023-08-01T01:19:08;12.55;;;4.90;;
30185;SDS011;31152;49.190;8.122;2023-08-01T01:21:36;12.93;;;6.07;;
30185;SDS011;31152;49.190;8.122;2023-08-01T01:24:06;10.10;;;5.60;;
30185;SDS011;31152;49.190;8.122;2023-08-01T01:26:35;11.45;;;5.50;;
30185;SDS011;31152;49.190;8.122;2023-08-01T01:29:05;12.45;;;5.72;;
30185;SDS011;31152;49.190;8.122;2023-08-01T01:31:35;13.50;;;5.35;;
30185;SDS011;31152;49.190;8.122;2023-08-01T01:34:03;14.60;;;6.25;;
30185;SDS011;31152;49.190;8.122;2023-08-01T01:36:30;12.32;;;6.28;;
30185;SDS011;31152;49.190;8.122;2023-08-01T01:38:57;11.48;;;5.90;;
30185;SDS011;31152;49.190;8.122;2023-08-01T01:41:24;12.40;;;6.15;;
30185;SDS011;31152;49.190;8.122;2023-08-01T01:43:51;14.05;;;6.03;;
30185;SDS011;31152;49.190;8.122;2023-08-01T01:46:18;11.88;;;6.22;;
30185;SDS011;31152;49.190;8.122;2023-08-01T01:48:45;14.50;;;6.13;;
30185;SDS011;31152;49.190;8.122;2023-08-01T01:51:13;11.30;;;5.65;;
30185;SDS011;31152;49.190;8.122;2023-08-01T01:53:42;9.05;;;5.43;;
30185;SDS011;31152;49.190;8.122;2023-08-01T01:56:08;11.18;;;5.75;;
30185;SDS011;31152;49.190;8.122;2023-08-01T01:58:35;16.77;;;5.90;;
30185;SDS011;31152;49.190;8.122;2023-08-01T02:01:02;11.57;;;6.10;;
30185;SDS011;31152;49.190;8.122;2023-08-01T02:03:31;14.25;;;6.32;;
30185;SDS011;31152;49.190;8.122;2023-08-01T02:05:58;14.07;;;6.70;;
30185;SDS011;31152;49.190;8.122;2023-08-01T02:08:29;9.25;;;5.50;;
30185;SDS011;31152;49.190;8.122;2023-08-01T02:10:56;16.65;;;6.25;;
30185;SDS011;31152;49.190;8.122;2023-08-01T02:13:25;11.50;;;5.22;;
30185;SDS011;31152;49.190;8.122;2023-08-01T02:18:24;10.55;;;5.35;;
30185;SDS011;31152;49.190;8.122;2023-08-01T02:20:54;11.13;;;5.18;;
30185;SDS011;31152;49.190;8.122;2023-08-01T02:23:23;13.45;;;5.25;;
30185;SDS011;31152;49.190;8.122;2023-08-01T02:25:50;8.45;;;5.22;;
30185;SDS011;31152;49.190;8.122;2023-08-01T02:28:17;8.50;;;4.82;;
30185;SDS011;31152;49.190;8.122;2023-08-01T02:30:44;10.68;;;5.00;;
30185;SDS011;31152;49.190;8.122;2023-08-01T02:33:11;11.13;;;5.50;;
30185;SDS011;31152;49.190;8.122;2023-08-01T02:35:38;12.63;;;6.00;;
30185;SDS011;31152;49.190;8.122;2023-08-01T02:38:05;11.57;;;5.80;;
30185;SDS011;31152;49.190;8.122;2023-08-01T02:40:31;12.73;;;5.40;;
30185;SDS011;31152;49.190;8.122;2023-08-01T02:42:58;11.55;;;5.55;;
30185;SDS011;31152;49.190;8.122;2023-08-01T02:45:25;15.70;;;5.88;;
30185;SDS011;31152;49.190;8.122;2023-08-01T02:47:52;10.35;;;5.47;;
30185;SDS011;31152;49.190;8.122;2023-08-01T02:50:21;11.98;;;5.18;;
30185;SDS011;31152;49.190;8.122;2023-08-01T02:52:48;12.35;;;5.63;;
30185;SDS011;31152;49.190;8.122;2023-08-01T02:55:14;9.75;;;4.75;;
30185;SDS011;31152;49.190;8.122;2023-08-01T02:57:41;9.93;;;4.47;;
30185;SDS011;31152;49.190;8.122;2023-08-01T03:00:09;10.80;;;5.70;;
30185;SDS011;31152;49.190;8.122;2023-08-01T03:02:38;14.70;;;4.70;;
30185;SDS011;31152;49.190;8.122;2023-08-01T03:05:06;11.10;;;5.25;;
30185;SDS011;31152;49.190;8.122;2023-08-01T03:07:34;9.73;;;4.70;;
30185;SDS011;31152;49.190;8.122;2023-08-01T03:10:00;9.38;;;4.28;;
30185;SDS011;31152;49.190;8.122;2023-08-01T03:12:27;10.10;;;4.72;;
30185;SDS011;31152;49.190;8.122;2023-08-01T03:14:54;6.95;;;3.80;;
30185;SDS011;31152;49.190;8.122;2023-08-01T03:17:21;8.75;;;3.88;;
30185;SDS011;31152;49.190;8.122;2023-08-01T03:19:50;12.20;;;3.80;;
30185;SDS011;31152;49.190;8.122;2023-08-01T03:22:17;8.95;;;4.13;;
30185;SDS011;31152;49.190;8.122;2023-08-01T03:24:46;9.18;;;4.25;;
30185;SDS011;31152;49.190;8.122;2023-08-01T03:27:15;11.18;;;4.72;;
30185;SDS011;31152;49.190;8.122;2023-08-01T03:29:42;9.93;;;4.43;;
30185;SDS011;31152;49.190;8.122;2023-08-01T03:32:08;10.63;;;4.60;;
30185;SDS011;31152;49.190;8.122;2023-08-01T03:34:37;9.43;;;4.22;;
30185;SDS011;31152;49.190;8.122;2023-08-01T03:37:07;13.23;;;4.90;;
30185;SDS011;31152;49.190;8.122;2023-08-01T03:39:34;12.55;;;4.68;;
30185;SDS011;31152;49.190;8.122;2023-08-01T03:42:01;12.38;;;4.15;;
30185;SDS011;31152;49.190;8.122;2023-08-01T03:44:30;6.22;;;3.67;;
30185;SDS011;31152;49.190;8.122;2023-08-01T03:46:58;9.82;;;4.07;;
30185;SDS011;31152;49.190;8.122;2023-08-01T03:49:24;8.70;;;4.38;;
30185;SDS011;31152;49.190;8.122;2023-08-01T03:51:51;9.13;;;4.63;;
30185;SDS011;31152;49.190;8.122;2023-08-01T03:54:18;7.70;;;4.20;;
30185;SDS011;31152;49.190;8.122;2023-08-01T03:56:45;7.95;;;4.22;;
30185;SDS011;31152;49.190;8.122;2023-08-01T03:59:12;9.18;;;4.47;;
30185;SDS011;31152;49.190;8.122;2023-08-01T04:01:40;6.38;;;4.13;;
30185;SDS011;31152;49.190;8.122;2023-08-01T04:04:08;10.07;;;4.10;;
30185;SDS011;31152;49.190;8.122;2023-08-01T04:06:35;9.45;;;3.90;;
30185;SDS011;31152;49.190;8.122;2023-08-01T04:09:02;9.93;;;3.55;;
30185;SDS011;31152;49.190;8.122;2023-08-01T04:11:31;5.13;;;3.10;;
30185;SDS011;31152;49.190;8.122;2023-08-01T04:14:00;6.22;;;3.45;;
30185;SDS011;31152;49.190;8.122;2023-08-01T04:16:29;5.63;;;2.92;;
30185;SDS011;31152;49.190;8.122;2023-08-01T04:18:56;5.75;;;3.10;;
30185;SDS011;31152;49.190;8.122;2023-08-01T04:21:23;6.78;;;3.08;;
30185;SDS011;31152;49.190;8.122;2023-08-01T04:23:50;6.22;;;3.55;;
30185;SDS011;31152;49.190;8.122;2023-08-01T04:26:16;7.18;;;3.13;;
30185;SDS011;31152;49.190;8.122;2023-08-01T04:28:45;7.63;;;3.50;;
30185;SDS011;31152;49.190;8.122;2023-08-01T04:31:14;8.38;;;3.60;;
30185;SDS011;31152;49.190;8.122;2023-08-01T04:33:41;7.93;;;3.55;;
30185;SDS011;31152;49.190;8.122;2023-08-01T04:36:07;7.82;;;3.97;;
30185;SDS011;31152;49.190;8.122;2023-08-01T04:38:34;7.05;;;3.50;;
30185;SDS011;31152;49.190;8.122;2023-08-01T04:41:06;8.27;;;4.30;;
30185;SDS011;31152;49.190;8.122;2023-08-01T04:43:32;13.82;;;4.68;;
30185;SDS011;31152;49.190;8.122;2023-08-01T04:46:02;7.57;;;4.38;;
30185;SDS011;31152;49.190;8.122;2023-08-01T04:48:28;9.85;;;5.70;;
30185;SDS011;31152;49.190;8.122;2023-08-01T04:50:55;10.23;;;5.18;;
30185;SDS011;31152;49.190;8.122;2023-08-01T04:53:22;11.23;;;5.82;;
30185;SDS011;31152;49.190;8.122;2023-08-01T04:55:49;10.38;;;5.80;;
30185;SDS011;31152;49.190;8.122;2023-08-01T04:58:16;11.02;;;5.65;;
30185;SDS011;31152;49.190;8.122;2023-08-01T05:00:48;15.50;;;6.40;;
30185;SDS011;31152;49.190;8.122;2023-08-01T05:03:14;12.85;;;6.10;;
30185;SDS011;31152;49.190;8.122;2023-08-01T05:05:41;10.50;;;6.13;;
30185;SDS011;31152;49.190;8.122;2023-08-01T05:08:08;11.18;;;5.90;;
30185;SDS011;31152;49.190;8.122;2023-08-01T05:10:37;10.85;;;5.82;;
30185;SDS011;31152;49.190;8.122;2023-08-01T05:13:05;13.90;;;5.97;;
30185;SDS011;31152;49.190;8.122;2023-08-01T05:15:31;12.05;;;5.63;;
30185;SDS011;31152;49.190;8.122;2023-08-01T05:17:58;10.50;;;5.57;;
30185;SDS011;31152;49.190;8.122;2023-08-01T05:20:25;11.50;;;5.47;;
30185;SDS011;31152;49.190;8.122;2023-08-01T05:22:57;13.15;;;5.68;;
30185;SDS011;31152;49.190;8.122;2023-08-01T05:25:25;12.05;;;5.55;;
30185;SDS011;31152;49.190;8.122;2023-08-01T05:27:52;12.32;;;5.10;;
30185;SDS011;31152;49.190;8.122;2023-08-01T05:30:18;11.52;;;5.07;;
30185;SDS011;31152;49.190;8.122;2023-08-01T05:32:47;8.48;;;4.63;;
30185;SDS011;31152;49.190;8.122;2023-08-01T05:35:14;9.90;;;4.75;;
30185;SDS011;31152;49.190;8.122;2023-08-01T05:37:41;9.52;;;4.57;;
30185;SDS011;31152;49.190;8.122;2023-08-01T05:40:08;12.48;;;4.50;;
30185;SDS011;31152;49.190;8.122;2023-08-01T05:42:37;9.07;;;4.57;;
30185;SDS011;31152;49.190;8.122;2023-08-01T05:45:04;9.13;;;4.43;;
30185;SDS011;31152;49.190;8.122;2023-08-01T05:47:31;11.73;;;4.35;;
30185;SDS011;31152;49.190;8.122;2023-08-01T05:49:58;11.05;;;4.22;;
30185;SDS011;31152;49.190;8.122;2023-08-01T05:52:25;6.25;;;3.85;;
30185;SDS011;31152;49.190;8.122;2023-08-01T05:54:52;11.30;;;4.25;;
30185;SDS011;31152;49.190;8.122;2023-08-01T05:57:19;9.18;;;4.32;;
30185;SDS011;31152;49.190;8.122;2023-08-01T05:59:46;8.10;;;4.10;;
30185;SDS011;31152;49.190;8.122;2023-08-01T06:02:12;6.80;;;3.97;;
30185;SDS011;31152;49.190;8.122;2023-08-01T06:04:39;10.77;;;4.18;;
30185;SDS011;31152;49.190;8.122;2023-08-01T06:07:06;8.25;;;4.30;;
30185;SDS011;31152;49.190;8.122;2023-08-01T06:09:33;7.03;;;4.00;;
30185;SDS011;31152;49.190;8.122;2023-08-01T06:11:59;8.52;;;3.60;;
30185;SDS011;31152;49.190;8.122;2023-08-01T06:14:28;6.57;;;4.10;;
30185;SDS011;31152;49.190;8.122;2023-08-01T06:16:55;8.27;;;4.07;;
30185;SDS011;31152;49.190;8.122;2023-08-01T06:19:22;5.75;;;3.63;;
30185;SDS011;31152;49.190;8.122;2023-08-01T06:21:49;8.68;;;4.95;;
30185;SDS011;31152;49.190;8.122;2023-08-01T06:24:15;7.68;;;4.07;;
30185;SDS011;31152;49.190;8.122;2023-08-01T06:26:42;12.57;;;4.47;;
30185;SDS011;31152;49.190;8.122;2023-08-01T06:29:09;6.85;;;4.20;;
30185;SDS011;31152;49.190;8.122;2023-08-01T06:31:36;9.02;;;4.05;;
30185;SDS011;31152;49.190;8.122;2023-08-01T06:34:02;6.05;;;3.53;;
30185;SDS011;31152;49.190;8.122;2023-08-01T06:36:29;6.38;;;3.63;;
30185;SDS011;31152;49.190;8.122;2023-08-01T06:38:58;7.45;;;3.78;;
30185;SDS011;31152;49.190;8.122;2023-08-01T06:41:27;7.18;;;3.80;;
30185;SDS011;31152;49.190;8.122;2023-08-01T06:43:54;4.97;;;3.00;;
30185;SDS011;31152;49.190;8.122;2023-08-01T06:46:20;6.07;;;3.45;;
30185;SDS011;31152;49.190;8.122;2023-08-01T06:48:49;5.75;;;3.40;;
30185;SDS011;31152;49.190;8.122;2023-08-01T06:51:16;7.70;;;3.90;;
30185;SDS011;31152;49.190;8.122;2023-08-01T06:53:43;5.47;;;3.13;;
30185;SDS011;31152;49.190;8.122;2023-08-01T06:56:10;6.65;;;3.30;;
30185;SDS011;31152;49.190;8.122;2023-08-01T06:58:36;9.63;;;3.95;;
30185;SDS011;31152;49.190;8.122;2023-08-01T07:01:03;5.28;;;3.17;;
30185;SDS011;31152;49.190;8.122;2023-08-01T07:03:30;5.53;;;3.38;;
30185;SDS011;31152;49.190;8.122;2023-08-01T07:05:57;5.57;;;3.33;;
30185;SDS011;31152;49.190;8.122;2023-08-01T07:08:24;7.07;;;3.63;;
30185;SDS011;31152;49.190;8.122;2023-08-01T07:10:51;5.65;;;3.20;;
30185;SDS011;31152;49.190;8.122;2023-08-01T07:13:20;5.05;;;3.45;;
30185;SDS011;31152;49.190;8.122;2023-08-01T07:15:48;5.55;;;3.10;;
30185;SDS011;31152;49.190;8.122;2023-08-01T07:18:15;6.70;;;3.58;;
30185;SDS011;31152;49.190;8.122;2023-08-01T07:20:42;6.07;;;2.90;;
30185;SDS011;31152;49.190;8.122;2023-08-01T07:23:09;6.65;;;3.13;;
30185;SDS011;31152;49.190;8.122;2023-08-01T07:25:36;4.80;;;2.70;;
30185;SDS011;31152;49.190;8.122;2023-08-01T07:28:02;8.15;;;3.13;;
30185;SDS011;31152;49.190;8.122;2023-08-01T07:30:29;5.40;;;2.80;;
30185;SDS011;31152;49.190;8.122;2023-08-01T07:32:56;5.57;;;2.13;;
30185;SDS011;31152;49.190;8.122;2023-08-01T07:35:23;4.45;;;2.33;;
30185;SDS011;31152;49.190;8.122;2023-08-01T07:37:50;4.25;;;2.00;;
30185;SDS011;31152;49.190;8.122;2023-08-01T07:40:17;3.95;;;2.15;;
30185;SDS011;31152;49.190;8.122;2023-08-01T07:42:43;2.42;;;1.55;;
30185;SDS011;31152;49.190;8.122;2023-08-01T07:45:13;2.25;;;1.50;;
30185;SDS011;31152;49.190;8.122;2023-08-01T07:47:39;3.22;;;1.30;;
30185;SDS011;31152;49.190;8.122;2023-08-01T07:50:06;1.65;;;1.42;;
30185;SDS011;31152;49.190;8.122;2023-08-01T07:52:33;1.50;;;1.10;;
30185;SDS011;31152;49.190;8.122;2023-08-01T07:55:00;1.17;;;0.80;;
30185;SDS011;31152;49.190;8.122;2023-08-01T07:57:27;1.48;;;1.20;;
30185;SDS011;31152;49.190;8.122;2023-08-01T07:59:56;1.23;;;0.68;;
30185;SDS011;31152;49.190;8.122;2023-08-01T08:02:23;2.20;;;1.02;;
30185;SDS011;31152;49.190;8.122;2023-08-01T08:04:49;4.25;;;0.77;;
30185;SDS011;31152;49.190;8.122;2023-08-01T08:07:16;2.35;;;0.70;;
30185;SDS011;31152;49.190;8.122;2023-08-01T08:09:43;2.83;;;0.65;;
30185;SDS011;31152;49.190;8.122;2023-08-01T08:12:10;1.08;;;0.60;;
30185;SDS011;31152;49.190;8.122;2023-08-01T08:14:37;0.93;;;0.30;;
30185;SDS011;31152;49.190;8.122;2023-08-01T08:17:04;0.75;;;0.50;;
30185;SDS011;31152;49.190;8.122;2023-08-01T08:19:31;0.47;;;0.47;;
30185;SDS011;31152;49.190;8.122;2023-08-01T08:21:58;0.98;;;0.50;;
30185;SDS011;31152;49.190;8.122;2023-08-01T08:24:25;0.63;;;0.57;;
30185;SDS011;31152;49.190;8.122;2023-08-01T08:26:51;0.52;;;0.50;;
30185;SDS011;31152;49.190;8.122;2023-08-01T08:29:18;1.63;;;0.50;;
30185;SDS011;31152;49.190;8.122;2023-08-01T08:31:45;0.70;;;0.40;;
30185;SDS011;31152;49.190;8.122;2023-08-01T08:34:12;0.90;;;0.60;;
30185;SDS011;31152;49.190;8.122;2023-08-01T08:36:39;0.47;;;0.45;;
30185;SDS011;31152;49.190;8.122;2023-08-01T08:39:09;0.30;;;0.30;;
30185;SDS011;31152;49.190;8.122;2023-08-01T08:41:37;0.93;;;0.60;;
30185;SDS011;31152;49.190;8.122;2023-08-01T08:44:10;0.30;;;0.30;;
30185;SDS011;31152;49.190;8.122;2023-08-01T08:46:42;0.60;;;0.50;;
30185;SDS011;31152;49.190;8.122;2023-08-01T08:49:12;0.70;;;0.50;;
30185;SDS011;31152;49.190;8.122;2023-08-01T08:51:46;1.13;;;0.68;;
30185;SDS011;31152;49.190;8.122;2023-08-01T08:54:15;1.42;;;0.60;;
30185;SDS011;31152;49.190;8.122;2023-08-01T08:56:43;1.33;;;0.47;;
30185;SDS011;31152;49.190;8.122;2023-08-01T08:59:10;1.17;;;0.50;;
30185;SDS011;31152;49.190;8.122;2023-08-01T09:01:37;0.63;;;0.50;;
30185;SDS011;31152;49.190;8.122;2023-08-01T09:04:08;1.08;;;0.55;;
30185;SDS011;31152;49.190;8.122;2023-08-01T09:06:37;0.80;;;0.55;;
30185;SDS011;31152;49.190;8.122;2023-08-01T09:09:11;1.48;;;0.50;;
30185;SDS011;31152;49.190;8.122;2023-08-01T09:11:45;1.15;;;0.40;;
30185;SDS011;31152;49.190;8.122;2023-08-01T09:14:16;0.73;;;0.50;;
30185;SDS011;31152;49.190;8.122;2023-08-01T09:16:44;3.50;;;0.90;;
30185;SDS011;31152;49.190;8.122;2023-08-01T09:19:15;1.20;;;0.50;;
30185;SDS011;31152;49.190;8.122;2023-08-01T09:21:47;1.83;;;0.60;;
30185;SDS011;31152;49.190;8.122;2023-08-01T09:24:15;3.53;;;0.68;;
30185;SDS011;31152;49.190;8.122;2023-08-01T09:26:47;1.70;;;0.60;;
30185;SDS011;31152;49.190;8.122;2023-08-01T09:29:17;2.72;;;0.80;;
30185;SDS011;31152;49.190;8.122;2023-08-01T09:31:44;4.13;;;0.70;;
30185;SDS011;31152;49.190;8.122;2023-08-01T09:34:45;1.15;;;0.60;;
30185;SDS011;31152;49.190;8.122;2023-08-01T09:37:04;1.50;;;0.70;;
30185;SDS011;31152;49.190;8.122;2023-08-01T09:39:31;1.65;;;0.73;;
30185;SDS011;31152;49.190;8.122;2023-08-01T09:41:58;1.00;;;0.90;;
30185;SDS011;31152;49.190;8.122;2023-08-01T09:44:27;1.48;;;0.80;;
30185;SDS011;31152;49.190;8.122;2023-08-01T09:46:56;1.10;;;0.75;;
30185;SDS011;31152;49.190;8.122;2023-08-01T09:49:30;1.73;;;0.73;;
30185;SDS011;31152;49.190;8.122;2023-08-01T09:51:58;1.10;;;0.80;;
30185;SDS011;31152;49.190;8.122;2023-08-01T09:54:25;2.10;;;0.80;;
30185;SDS011;31152;49.190;8.122;2023-08-01T09:56:59;1.90;;;0.85;;
30185;SDS011;31152;49.190;8.122;2023-08-01T09:59:32;0.93;;;0.77;;
30185;SDS011;31152;49.190;8.122;2023-08-01T10:02:00;0.93;;;0.80;;
30185;SDS011;31152;49.190;8.122;2023-08-01T10:04:30;1.50;;;0.77;;
30185;SDS011;31152;49.190;8.122;2023-08-01T10:07:03;1.75;;;0.90;;
30185;SDS011;31152;49.190;8.122;2023-08-01T10:09:37;1.98;;;0.80;;
30185;SDS011;31152;49.190;8.122;2023-08-01T10:12:05;1.08;;;0.85;;
30185;SDS011;31152;49.190;8.122;2023-08-01T10:14:33;1.40;;;1.20;;
30185;SDS011;31152;49.190;8.122;2023-08-01T10:17:02;1.80;;;1.10;;
30185;SDS011;31152;49.190;8.122;2023-08-01T10:19:30;2.25;;;1.42;;
30185;SDS011;31152;49.190;8.122;2023-08-01T10:22:01;3.85;;;1.35;;
30185;SDS011;31152;49.190;8.122;2023-08-01T10:24:32;2.90;;;1.33;;
30185;SDS011;31152;49.190;8.122;2023-08-01T10:29:56;5.07;;;1.50;;
30185;SDS011;31152;49.190;8.122;2023-08-01T10:32:33;2.90;;;1.20;;
30185;SDS011;31152;49.190;8.122;2023-08-01T10:35:04;2.20;;;1.23;;
30185;SDS011;31152;49.190;8.122;2023-08-01T10:37:39;3.03;;;1.60;;
30185;SDS011;31152;49.190;8.122;2023-08-01T10:40:09;4.70;;;1.58;;
30185;SDS011;31152;49.190;8.122;2023-08-01T10:42:44;2.95;;;1.60;;
30185;SDS011;31152;49.190;8.122;2023-08-01T10:45:21;4.25;;;1.23;;
30185;SDS011;31152;49.190;8.122;2023-08-01T10:48:05;4.25;;;1.55;;
30185;SDS011;31152;49.190;8.122;2023-08-01T10:53:09;3.28;;;1.15;;
30185;SDS011;31152;49.190;8.122;2023-08-01T10:55:40;3.35;;;1.40;;
30185;SDS011;31152;49.190;8.122;2023-08-01T10:58:11;2.20;;;1.38;;
30185;SDS011;31152;49.190;8.122;2023-08-01T11:00:44;2.58;;;1.10;;
30185;SDS011;31152;49.190;8.122;2023-08-01T11:03:10;2.92;;;1.67;;
30185;SDS011;31152;49.190;8.122;2023-08-01T11:05:37;2.05;;;1.30;;
30185;SDS011;31152;49.190;8.122;2023-08-01T11:08:07;2.75;;;1.38;;
30185;SDS011;31152;49.190;8.122;2023-08-01T11:10:34;1.92;;;1.35;;
30185;SDS011;31152;49.190;8.122;2023-08-01T11:13:00;2.85;;;1.33;;
30185;SDS011;31152;49.190;8.122;2023-08-01T11:15:27;5.18;;;2.03;;
30185;SDS011;31152;49.190;8.122;2023-08-01T11:17:56;3.97;;;1.50;;
30185;SDS011;31152;49.190;8.122;2023-08-01T11:20:24;1.75;;;1.30;;
30185;SDS011;31152;49.190;8.122;2023-08-01T11:23:00;2.58;;;1.40;;
30185;SDS011;31152;49.190;8.122;2023-08-01T11:25:37;2.40;;;1.42;;
30185;SDS011;31152;49.190;8.122;2023-08-01T11:28:10;2.25;;;1.48;;
30185;SDS011;31152;49.190;8.122;2023-08-01T11:30:38;3.95;;;1.67;;
30185;SDS011;31152;49.190;8.122;2023-08-01T11:33:41;4.13;;;1.42;;
30185;SDS011;31152;49.190;8.122;2023-08-01T11:36:02;4.45;;;1.67;;
30185;SDS011;31152;49.190;8.122;2023-08-01T11:38:33;2.85;;;1.52;;
30185;SDS011;31152;49.190;8.122;2023-08-01T11:41:01;2.92;;;1.52;;
30185;SDS011;31152;49.190;8.122;2023-08-01T11:43:40;4.43;;;1.40;;
30185;SDS011;31152;49.190;8.122;2023-08-01T11:46:07;2.85;;;1.45;;
30185;SDS011;31152;49.190;8.122;2023-08-01T11:48:36;3.90;;;1.83;;
30185;SDS011;31152;49.190;8.122;2023-08-01T11:51:06;2.75;;;1.38;;
30185;SDS011;31152;49.190;8.122;2023-08-01T11:53:35;4.20;;;1.30;;
30185;SDS011;31152;49.190;8.122;2023-08-01T11:56:05;2.20;;;1.20;;
30185;SDS011;31152;49.190;8.122;2023-08-01T11:58:33;1.90;;;1.10;;
30185;SDS011;31152;49.190;8.122;2023-08-01T12:01:04;2.35;;;1.20;;
30185;SDS011;31152;49.190;8.122;2023-08-01T12:06:12;9.75;;;1.70;;
30185;SDS011;31152;49.190;8.122;2023-08-01T12:08:42;2.25;;;1.20;;
30185;SDS011;31152;49.190;8.122;2023-08-01T12:16:29;1.50;;;1.10;;
30185;SDS011;31152;49.190;8.122;2023-08-01T12:18:56;2.92;;;1.30;;
30185;SDS011;31152;49.190;8.122;2023-08-01T12:21:26;4.70;;;1.38;;
30185;SDS011;31152;49.190;8.122;2023-08-01T12:23:53;2.25;;;1.25;;
30185;SDS011;31152;49.190;8.122;2023-08-01T12:26:20;2.75;;;1.27;;
30185;SDS011;31152;49.190;8.122;2023-08-01T12:28:47;2.78;;;1.30;;
30185;SDS011;31152;49.190;8.122;2023-08-01T12:31:17;2.95;;;1.20;;
30185;SDS011;31152;49.190;8.122;2023-08-01T12:33:45;3.70;;;1.35;;
30185;SDS011;31152;49.190;8.122;2023-08-01T12:36:13;2.08;;;1.00;;
30185;SDS011;31152;49.190;8.122;2023-08-01T12:38:41;3.53;;;1.23;;
30185;SDS011;31152;49.190;8.122;2023-08-01T12:41:07;2.28;;;1.38;;
30185;SDS011;31152;49.190;8.122;2023-08-01T12:43:34;2.92;;;1.50;;
30185;SDS011;31152;49.190;8.122;2023-08-01T12:46:01;4.53;;;1.30;;
30185;SDS011;31152;49.190;8.122;2023-08-01T12:48:31;2.67;;;1.38;;
30185;SDS011;31152;49.190;8.122;2023-08-01T12:50:57;3.15;;;1.55;;
30185;SDS011;31152;49.190;8.122;2023-08-01T12:53:24;3.17;;;1.52;;
30185;SDS011;31152;49.190;8.122;2023-08-01T12:55:51;4.15;;;1.55;;
30185;SDS011;31152;49.190;8.122;2023-08-01T12:58:18;3.42;;;1.50;;
30185;SDS011;31152;49.190;8.122;2023-08-01T13:00:45;3.55;;;1.60;;
30185;SDS011;31152;49.190;8.122;2023-08-01T13:03:12;4.78;;;1.50;;
30185;SDS011;31152;49.190;8.122;2023-08-01T13:05:40;1.98;;;1.40;;
30185;SDS011;31152;49.190;8.122;2023-08-01T13:08:08;4.00;;;1.83;;
30185;SDS011;31152;49.190;8.122;2023-08-01T13:10:37;3.42;;;1.80;;
30185;SDS011;31152;49.190;8.122;2023-08-01T13:13:07;2.40;;;1.20;;
30185;SDS011;31152;49.190;8.122;2023-08-01T13:15:34;3.15;;;1.58;;
30185;SDS011;31152;49.190;8.122;2023-08-01T13:18:01;2.88;;;1.38;;
30185;SDS011;31152;49.190;8.122;2023-08-01T13:20:28;5.28;;;1.10;;
30185;SDS011;31152;49.190;8.122;2023-08-01T13:22:57;2.47;;;1.55;;
30185;SDS011;31152;49.190;8.122;2023-08-01T13:25:23;2.95;;;1.42;;
30185;SDS011;31152;49.190;8.122;2023-08-01T13:27:50;3.55;;;1.38;;
30185;SDS011;31152;49.190;8.122;2023-08-01T13:30:17;2.70;;;1.35;;
30185;SDS011;31152;49.190;8.122;2023-08-01T13:32:45;4.00;;;1.50;;
30185;SDS011;31152;49.190;8.122;2023-08-01T13:35:14;4.93;;;1.50;;
30185;SDS011;31152;49.190;8.122;2023-08-01T13:37:42;2.35;;;1.50;;
30185;SDS011;31152;49.190;8.122;2023-08-01T13:40:11;3.55;;;1.60;;
30185;SDS011;31152;49.190;8.122;2023-08-01T13:42:40;3.90;;;1.13;;
30185;SDS011;31152;49.190;8.122;2023-08-01T13:45:07;2.88;;;1.40;;
30185;SDS011;31152;49.190;8.122;2023-08-01T13:47:34;3.45;;;1.20;;
30185;SDS011;31152;49.190;8.122;2023-08-01T13:50:01;3.03;;;1.45;;
30185;SDS011;31152;49.190;8.122;2023-08-01T13:52:28;6.18;;;1.70;;
30185;SDS011;31152;49.190;8.122;2023-08-01T13:54:55;4.78;;;1.70;;
30185;SDS011;31152;49.190;8.122;2023-08-01T13:57:22;2.85;;;1.33;;
30185;SDS011;31152;49.190;8.122;2023-08-01T13:59:49;3.97;;;1.20;;
30185;SDS011;31152;49.190;8.122;2023-08-01T14:02:31;3.28;;;1.60;;
30185;SDS011;31152;49.190;8.122;2023-08-01T14:04:58;5.53;;;1.63;;
30185;SDS011;31152;49.190;8.122;2023-08-01T14:07:25;3.65;;;1.52;;
30185;SDS011;31152;49.190;8.122;2023-08-01T14:09:52;2.05;;;1.20;;
30185;SDS011;31152;49.190;8.122;2023-08-01T14:12:19;1.95;;;1.45;;
30185;SDS011;31152;49.190;8.122;2023-08-01T14:14:46;2.53;;;1.50;;
30185;SDS011;31152;49.190;8.122;2023-08-01T14:17:15;1.85;;;1.33;;
30185;SDS011;31152;49.190;8.122;2023-08-01T14:19:42;3.50;;;1.63;;
30185;SDS011;31152;49.190;8.122;2023-08-01T14:22:08;3.08;;;1.30;;
30185;SDS011;31152;49.190;8.122;2023-08-01T14:24:37;2.45;;;1.38;;
30185;SDS011;31152;49.190;8.122;2023-08-01T14:27:09;2.95;;;1.13;;
30185;SDS011;31152;49.190;8.122;2023-08-01T14:29:36;1.83;;;1.10;;
30185;SDS011;31152;49.190;8.122;2023-08-01T14:32:05;4.85;;;1.60;;
30185;SDS011;31152;49.190;8.122;2023-08-01T14:34:32;2.58;;;1.30;;
30185;SDS011;31152;49.190;8.122;2023-08-01T14:36:59;2.50;;;1.50;;
30185;SDS011;31152;49.190;8.122;2023-08-01T14:39:25;2.42;;;1.40;;
30185;SDS011;31152;49.190;8.122;2023-08-01T14:41:52;6.07;;;1.98;;
30185;SDS011;31152;49.190;8.122;2023-08-01T14:44:30;3.58;;;1.52;;
30185;SDS011;31152;49.190;8.122;2023-08-01T14:46:57;3.20;;;1.48;;
30185;SDS011;31152;49.190;8.122;2023-08-01T14:49:26;1.67;;;1.10;;
30185;SDS011;31152;49.190;8.122;2023-08-01T14:51:55;2.67;;;1.20;;
30185;SDS011;31152;49.190;8.122;2023-08-01T14:54:24;1.73;;;1.13;;
30185;SDS011;31152;49.190;8.122;2023-08-01T14:57:05;5.00;;;1.20;;
30185;SDS011;31152;49.190;8.122;2023-08-01T14:59:34;2.75;;;1.75;;
30185;SDS011;31152;49.190;8.122;2023-08-01T15:02:01;2.97;;;1.25;;
30185;SDS011;31152;49.190;8.122;2023-08-01T15:04:35;2.42;;;1.40;;
30185;SDS011;31152;49.190;8.122;2023-08-01T15:07:02;3.53;;;1.33;;